Time;durP1;ratioP1;P1;durP2;ratioP2;P2;SDS_P1;SDS_P2;PMS_P1;PMS_P2;Temp;Humidity;BMP_temperature;BMP_pressure;BME280_temperature;BME280_humidity;BME280_pressure;Samples;Min_cycle;Max_cycle;Signal;HPM_P1;HPM_P2
2021/05/11 00:01:52;;;;;;;3.30;1.15;;;17.90;70.80;;;;;;5088942;28;20031;-78
2021/05/11 00:04:17;;;;;;;2.58;1.20;;;17.90;70.70;;;;;;5088378;28;20025;-77
2021/05/11 00:06:43;;;;;;;2.17;1.17;;;17.80;70.80;;;;;;5088556;28;20046;-77
2021/05/11 00:09:09;;;;;;;4.18;1.77;;;17.80;70.80;;;;;;5088059;28;20039;-77
2021/05/11 00:11:35;;;;;;;1.35;1.08;;;17.80;70.70;;;;;;5088759;28;20027;-76
2021/05/11 00:14:03;;;;;;;3.25;1.42;;;17.80;70.80;;;;;;5087399;28;20029;-77
2021/05/11 00:16:29;;;;;;;2.35;1.00;;;17.80;71.10;;;;;;5088889;28;20070;-77
2021/05/11 00:18:55;;;;;;;3.58;1.30;;;17.70;71.30;;;;;;5088602;28;20137;-77
2021/05/11 00:21:21;;;;;;;3.05;1.30;;;17.70;71.30;;;;;;5088042;28;20261;-77
2021/05/11 00:23:47;;;;;;;2.40;1.10;;;17.70;71.10;;;;;;5087387;28;20025;-77
2021/05/11 00:26:12;;;;;;;3.60;1.00;;;17.70;70.90;;;;;;5088211;28;20460;-77
2021/05/11 00:28:38;;;;;;;3.63;1.80;;;17.70;70.90;;;;;;5088026;28;20139;-76
2021/05/11 00:31:03;;;;;;;1.77;1.02;;;17.70;71.10;;;;;;5087965;28;20438;-77
2021/05/11 00:33:29;;;;;;;4.03;1.40;;;17.60;71.60;;;;;;5088174;28;20024;-77
2021/05/11 00:35:55;;;;;;;4.28;1.50;;;17.60;71.20;;;;;;5088768;28;20020;-76
2021/05/11 00:38:20;;;;;;;3.83;1.45;;;17.60;71.30;;;;;;5087877;28;20024;-77
2021/05/11 00:40:46;;;;;;;3.17;1.20;;;17.60;71.30;;;;;;5078044;28;20024;-78
2021/05/11 00:43:12;;;;;;;3.05;1.30;;;17.50;71.30;;;;;;5074077;28;20073;-76
2021/05/11 00:45:37;;;;;;;4.47;1.70;;;17.50;71.30;;;;;;5075043;28;20027;-77
2021/05/11 00:48:03;;;;;;;2.88;1.35;;;17.50;71.50;;;;;;5075100;28;20508;-78
2021/05/11 00:50:29;;;;;;;3.20;1.58;;;17.40;71.60;;;;;;5074464;28;20135;-77
2021/05/11 00:52:55;;;;;;;3.83;1.38;;;17.40;71.70;;;;;;5074783;28;20024;-78
2021/05/11 00:55:21;;;;;;;3.45;1.50;;;17.40;71.50;;;;;;5072573;28;20021;-77
2021/05/11 00:57:48;;;;;;;6.00;1.90;;;17.40;71.70;;;;;;5074472;28;20028;-78
2021/05/11 01:00:14;;;;;;;3.72;1.50;;;17.40;71.90;;;;;;5073744;28;20174;-77
2021/05/11 01:02:40;;;;;;;4.25;1.58;;;17.40;71.80;;;;;;5074346;28;20103;-77
2021/05/11 01:05:06;;;;;;;4.95;1.65;;;17.30;71.80;;;;;;5072508;28;20052;-76
2021/05/11 01:07:33;;;;;;;3.00;1.45;;;17.20;71.80;;;;;;5074329;28;20017;-77
2021/05/11 01:09:58;;;;;;;3.15;1.55;;;17.20;72.00;;;;;;5074231;28;20103;-77
2021/05/11 01:12:25;;;;;;;3.97;1.50;;;17.10;72.00;;;;;;5073496;28;20056;-76
2021/05/11 01:14:52;;;;;;;1.77;1.30;;;17.10;72.10;;;;;;5074011;28;20031;-78
2021/05/11 01:17:25;;;;;;;3.40;1.73;;;17.10;72.30;;;;;;5073477;28;20465;-78
2021/05/11 01:19:54;;;;;;;4.30;1.88;;;17.10;72.30;;;;;;5074155;28;20029;-78
2021/05/11 01:25:19;;;;;;;8.35;1.95;;;17.10;72.60;;;;;;5073787;28;20503;-77
2021/05/11 01:28:08;;;;;;;4.50;2.13;;;17.10;72.70;;;;;;5072934;28;20031;-77
2021/05/11 01:44:13;;;;;;;3.53;1.90;;;16.90;73.50;;;;;;5073696;28;20051;-78
2021/05/11 01:49:24;;;;;;;2.85;2.00;;;16.90;73.80;;;;;;5072909;28;20431;-77
2021/05/11 01:52:18;;;;;;;5.88;2.20;;;16.90;74.00;;;;;;5072535;28;20023;-77
2021/05/11 02:24:51;;;;;;;6.40;2.42;;;16.70;75.50;;;;;;5070426;28;20033;-77
2021/05/11 02:27:17;;;;;;;6.38;2.20;;;16.70;75.60;;;;;;5069639;28;20086;-76
2021/05/11 02:29:42;;;;;;;6.10;1.90;;;16.70;75.60;;;;;;5070898;28;20049;-78
2021/05/11 02:32:08;;;;;;;6.28;2.45;;;16.70;75.80;;;;;;5071439;28;20025;-78
2021/05/11 02:34:33;;;;;;;4.10;2.63;;;16.70;75.80;;;;;;5071928;28;20032;-77
2021/05/11 02:36:59;;;;;;;4.65;2.58;;;16.60;76.00;;;;;;5072274;28;20032;-78
2021/05/11 02:39:25;;;;;;;8.40;2.50;;;16.70;76.30;;;;;;5071777;28;20457;-77
2021/05/11 02:41:50;;;;;;;5.35;2.50;;;16.60;76.40;;;;;;5072489;28;20020;-78
2021/05/11 02:44:19;;;;;;;5.72;2.80;;;16.70;76.50;;;;;;5072068;28;20059;-77
2021/05/11 02:46:44;;;;;;;3.83;2.40;;;16.60;76.50;;;;;;5071353;28;20024;-78
2021/05/11 02:49:12;;;;;;;5.35;3.05;;;16.60;76.50;;;;;;5071078;28;20039;-78
2021/05/11 02:51:37;;;;;;;4.35;2.40;;;16.60;76.60;;;;;;5072073;28;20031;-78
2021/05/11 02:54:03;;;;;;;6.05;2.58;;;16.70;76.80;;;;;;5072349;28;20025;-78
2021/05/11 02:56:29;;;;;;;5.90;2.92;;;16.60;76.90;;;;;;5073203;28;20476;-76
2021/05/11 02:58:54;;;;;;;5.32;2.70;;;16.60;77.00;;;;;;5073978;28;20065;-77
2021/05/11 03:01:20;;;;;;;4.60;2.40;;;16.60;77.20;;;;;;5071910;28;20051;-76
2021/05/11 03:03:46;;;;;;;5.60;2.42;;;16.60;77.10;;;;;;5071946;28;20024;-77
2021/05/11 03:06:11;;;;;;;4.20;2.50;;;16.60;77.20;;;;;;5071543;28;20024;-77
2021/05/11 03:08:42;;;;;;;6.68;3.03;;;16.60;77.30;;;;;;5072297;28;20481;-78
2021/05/11 03:11:07;;;;;;;6.47;3.28;;;16.60;77.30;;;;;;5072298;28;20028;-77
2021/05/11 03:13:33;;;;;;;4.82;2.65;;;16.60;77.40;;;;;;5071551;28;20161;-77
2021/05/11 03:15:59;;;;;;;6.95;2.95;;;16.60;77.40;;;;;;5072083;28;20021;-78
2021/05/11 03:18:24;;;;;;;6.32;3.17;;;16.60;77.50;;;;;;5071260;28;20032;-77
2021/05/11 03:20:50;;;;;;;9.02;3.80;;;16.60;77.70;;;;;;5072177;28;20497;-76
2021/05/11 03:23:15;;;;;;;6.32;3.17;;;16.60;77.70;;;;;;5071637;28;20524;-75
2021/05/11 03:25:41;;;;;;;7.03;2.50;;;16.60;77.80;;;;;;5072184;28;20059;-78
2021/05/11 03:28:07;;;;;;;7.93;3.63;;;16.60;77.90;;;;;;5070644;28;20017;-77
2021/05/11 03:30:32;;;;;;;5.75;3.10;;;16.60;77.90;;;;;;5069540;28;20044;-77
2021/05/11 03:32:58;;;;;;;4.28;2.45;;;16.60;78.00;;;;;;5072237;28;20465;-77
2021/05/11 03:35:24;;;;;;;4.10;2.50;;;16.50;78.00;;;;;;5071219;28;20029;-77
2021/05/11 03:37:49;;;;;;;4.85;2.85;;;16.50;78.20;;;;;;5071962;28;20020;-77
2021/05/11 03:40:15;;;;;;;5.50;3.10;;;16.50;78.20;;;;;;5071770;28;20025;-78
2021/05/11 03:42:50;;;;;;;6.13;3.13;;;16.50;78.30;;;;;;5071165;28;20027;-77
2021/05/11 03:45:17;;;;;;;6.07;2.67;;;16.50;78.40;;;;;;5071750;28;20023;-77
2021/05/11 03:47:46;;;;;;;5.30;2.92;;;16.50;79.00;;;;;;5070550;28;20496;-76
2021/05/11 03:50:16;;;;;;;8.25;2.85;;;16.50;78.50;;;;;;5070425;28;20064;-77
2021/05/11 03:52:44;;;;;;;6.78;3.25;;;16.50;78.60;;;;;;5071428;28;20035;-77
2021/05/11 03:55:10;;;;;;;6.72;3.30;;;16.50;78.60;;;;;;5071697;28;20025;-78
2021/05/11 03:57:36;;;;;;;5.78;3.33;;;16.50;78.60;;;;;;5071097;28;20028;-76
2021/05/11 04:00:03;;;;;;;4.63;3.00;;;16.50;78.70;;;;;;5070303;28;20415;-78
2021/05/11 04:02:29;;;;;;;5.03;2.90;;;16.50;78.70;;;;;;5070711;28;20028;-80
2021/05/11 04:04:54;;;;;;;9.48;3.00;;;16.50;78.70;;;;;;5071611;28;20025;-75
2021/05/11 04:07:20;;;;;;;6.57;2.55;;;16.50;78.70;;;;;;5070602;28;20373;-77
2021/05/11 04:09:50;;;;;;;5.22;3.00;;;16.50;78.80;;;;;;5070208;28;20035;-78
2021/05/11 04:17:45;;;;;;;7.20;3.30;;;16.50;78.90;;;;;;5074498;28;20086;-77
2021/05/11 04:20:14;;;;;;;7.25;3.03;;;16.50;78.90;;;;;;5075130;28;20063;-78
2021/05/11 04:22:40;;;;;;;6.60;3.10;;;16.50;79.00;;;;;;5072015;28;20036;-76
2021/05/11 04:25:07;;;;;;;4.72;3.20;;;16.50;79.00;;;;;;5065410;28;20400;-78
2021/05/11 04:27:32;;;;;;;6.00;2.97;;;16.50;79.00;;;;;;5056512;28;20031;-76
2021/05/11 04:30:03;;;;;;;6.68;3.55;;;16.50;79.10;;;;;;5063370;28;20124;-77
2021/05/11 04:32:29;;;;;;;;;;;16.50;79.10;;;;;;5055018;28;20025;-78
2021/05/11 04:34:55;;;;;;;7.65;4.97;;;16.40;78.90;;;;;;5055038;28;19904;-77
2021/05/11 04:37:21;;;;;;;8.48;4.40;;;16.40;78.90;;;;;;5054949;28;20025;-78
2021/05/11 04:39:46;;;;;;;7.63;3.80;;;16.40;79.00;;;;;;5054896;28;20074;-78
2021/05/11 04:42:12;;;;;;;5.65;3.25;;;16.40;79.00;;;;;;5056323;28;20029;-77
2021/05/11 04:44:39;;;;;;;5.38;3.17;;;16.40;79.10;;;;;;5071119;28;20025;-78
2021/05/11 04:47:29;;;;;;;6.60;2.95;;;16.40;79.10;;;;;;5073913;28;20039;-78
2021/05/11 04:49:53;;;;;;;5.15;3.05;;;16.50;79.00;;;;;;5073614;28;20396;-77
2021/05/11 04:52:18;;;;;;;4.65;2.78;;;16.40;79.00;;;;;;5073981;28;20499;-77
2021/05/11 04:54:44;;;;;;;5.65;2.97;;;16.50;79.10;;;;;;5073954;28;20029;-78
2021/05/11 04:57:09;;;;;;;6.80;2.55;;;16.40;79.10;;;;;;5074526;28;20120;-78
2021/05/11 04:59:35;;;;;;;6.40;2.90;;;16.40;79.20;;;;;;5073571;28;20032;-77
2021/05/11 05:02:02;;;;;;;6.88;2.83;;;16.50;79.80;;;;;;5074373;28;20052;-77
2021/05/11 05:04:31;;;;;;;5.53;2.33;;;16.50;79.10;;;;;;5072418;28;20062;-77
2021/05/11 05:06:57;;;;;;;4.68;3.00;;;16.50;79.10;;;;;;5072965;28;20486;-78
2021/05/11 05:09:23;;;;;;;6.32;2.92;;;16.50;79.10;;;;;;5072619;28;20032;-79
2021/05/11 05:11:48;;;;;;;8.05;3.10;;;16.50;79.20;;;;;;5070683;28;20050;-89
2021/05/11 05:14:14;;;;;;;8.60;3.00;;;16.60;79.30;;;;;;5072150;28;20419;-79
2021/05/11 05:16:40;;;;;;;6.20;3.35;;;16.50;79.10;;;;;;5071567;28;20031;-78
2021/05/11 05:19:06;;;;;;;7.13;2.78;;;16.60;79.20;;;;;;5071743;28;20024;-75
2021/05/11 05:21:32;;;;;;;5.57;2.88;;;16.60;79.10;;;;;;5069415;28;20036;-80
2021/05/11 05:26:36;;;;;;;6.30;3.20;;;16.60;79.10;;;;;;5071085;28;20029;-79
2021/05/11 05:29:02;;;;;;;5.68;2.97;;;16.60;79.10;;;;;;5071442;28;20105;-79
2021/05/11 05:31:29;;;;;;;5.88;2.65;;;16.60;79.10;;;;;;5069644;28;20024;-79
2021/05/11 05:33:55;;;;;;;5.95;2.83;;;16.60;79.20;;;;;;5071786;28;20028;-77
2021/05/11 05:36:21;;;;;;;4.38;2.70;;;16.60;79.30;;;;;;5070618;28;20043;-76
2021/05/11 05:38:47;;;;;;;5.25;2.60;;;16.60;79.30;;;;;;5069862;28;20107;-77
2021/05/11 05:41:22;;;;;;;5.22;3.00;;;16.60;79.20;;;;;;5070689;28;20116;-77
2021/05/11 05:43:48;;;;;;;8.95;3.25;;;16.60;79.20;;;;;;5069644;28;20027;-78
2021/05/11 05:46:14;;;;;;;4.15;2.55;;;16.60;79.20;;;;;;5071382;28;20050;-77
2021/05/11 05:48:40;;;;;;;7.70;2.80;;;16.60;79.10;;;;;;5069922;28;20021;-78
2021/05/11 05:51:05;;;;;;;6.43;3.25;;;16.70;79.10;;;;;;5073267;28;20020;-78
2021/05/11 05:53:39;;;;;;;8.95;3.30;;;16.70;79.20;;;;;;5072702;28;20081;-78
2021/05/11 05:56:06;;;;;;;6.13;3.05;;;16.70;79.30;;;;;;5073191;28;20032;-78
2021/05/11 05:58:32;;;;;;;7.47;2.75;;;16.70;79.40;;;;;;5071267;28;20025;-77
2021/05/11 06:01:02;;;;;;;9.05;3.10;;;16.70;79.40;;;;;;5073214;28;20103;-78
2021/05/11 06:03:37;;;;;;;6.68;3.20;;;16.70;79.50;;;;;;5071442;28;20025;-77
2021/05/11 06:06:07;;;;;;;4.75;2.67;;;16.70;79.50;;;;;;5072696;28;20045;-77
2021/05/11 06:08:35;;;;;;;5.60;2.70;;;16.80;79.40;;;;;;5071082;28;20089;-78
2021/05/11 06:11:12;;;;;;;9.52;3.42;;;16.80;79.30;;;;;;5071565;28;20429;-77
2021/05/11 06:14:28;;;;;;;6.68;2.75;;;16.80;79.30;;;;;;5072362;28;20024;-78
2021/05/11 06:19:08;;;;;;;7.10;2.95;;;16.90;79.30;;;;;;5072987;28;20051;-78
2021/05/11 06:21:34;;;;;;;7.88;3.30;;;16.90;79.20;;;;;;5072455;28;20183;-78
2021/05/11 06:23:59;;;;;;;7.55;3.45;;;16.90;79.30;;;;;;5072078;28;20025;-77
2021/05/11 06:26:25;;;;;;;12.27;3.78;;;17.00;79.30;;;;;;5073856;28;20017;-78
2021/05/11 06:28:53;;;;;;;11.50;3.13;;;17.00;79.20;;;;;;5071837;28;20059;-78
2021/05/11 06:31:19;;;;;;;5.22;2.95;;;17.10;79.20;;;;;;5072836;28;20036;-78
2021/05/11 06:33:44;;;;;;;6.03;2.60;;;17.10;79.20;;;;;;5072334;28;20032;-78
2021/05/11 06:36:10;;;;;;;6.95;3.05;;;17.10;79.10;;;;;;5071362;28;20376;-77
2021/05/11 06:38:36;;;;;;;7.15;3.58;;;17.20;79.20;;;;;;5070093;28;20590;-78
2021/05/11 06:41:01;;;;;;;9.52;3.88;;;17.20;79.20;;;;;;5071091;28;20043;-79
2021/05/11 06:43:32;;;;;;;5.28;2.50;;;17.20;79.20;;;;;;5072386;28;20029;-78
2021/05/11 06:48:35;;;;;;;;;;;17.10;79.10;;;;;;5072773;28;19930;-78
2021/05/11 06:53:39;;;;;;;7.05;3.17;;;17.20;79.10;;;;;;5071807;28;20032;-77
2021/05/11 06:56:07;;;;;;;6.25;3.20;;;17.30;79.10;;;;;;5070885;28;20032;-78
2021/05/11 06:58:33;;;;;;;9.77;3.47;;;17.30;79.10;;;;;;5071789;28;20064;-77
2021/05/11 07:00:59;;;;;;;5.93;3.15;;;17.30;79.10;;;;;;5070913;28;20059;-77
2021/05/11 07:03:25;;;;;;;5.55;3.03;;;17.40;79.10;;;;;;5071055;28;20520;-79
2021/05/11 07:05:52;;;;;;;7.43;3.25;;;17.40;79.00;;;;;;5070523;28;20055;-78
2021/05/11 07:13:44;;;;;;;8.05;3.67;;;17.60;78.60;;;;;;5071390;28;20127;-77
2021/05/11 07:16:10;;;;;;;4.40;2.33;;;17.50;78.60;;;;;;5071626;28;20092;-79
2021/05/11 07:18:36;;;;;;;8.63;3.50;;;17.60;78.60;;;;;;5071584;28;20078;-77
2021/05/11 07:21:01;;;;;;;5.10;2.60;;;17.60;78.70;;;;;;5070763;28;20079;-79
2021/05/11 07:23:28;;;;;;;9.35;3.40;;;17.60;78.60;;;;;;5071881;28;20471;-78
2021/05/11 07:26:23;;;;;;;5.53;2.97;;;17.60;78.60;;;;;;5069862;28;20223;-78
2021/05/11 07:31:16;;;;;;;5.70;3.42;;;17.60;78.60;;;;;;5072162;28;20480;-79
2021/05/11 07:33:48;;;;;;;7.30;2.97;;;17.50;78.40;;;;;;5071195;28;20103;-77
2021/05/11 07:36:14;;;;;;;7.97;3.03;;;17.50;78.30;;;;;;5071900;28;20372;-77
2021/05/11 07:38:40;;;;;;;6.65;2.85;;;17.50;78.20;;;;;;5069945;28;20028;-78
2021/05/11 07:41:07;;;;;;;7.60;3.20;;;17.60;77.90;;;;;;5070399;28;20013;-78
2021/05/11 07:43:36;;;;;;;7.35;3.22;;;17.70;77.60;;;;;;5070345;28;20070;-78
2021/05/11 08:10:30;;;;;;;6.32;2.92;;;18.40;73.20;;;;;;5074747;28;20060;-78
2021/05/11 08:15:32;;;;;;;6.93;2.95;;;18.60;73.00;;;;;;5075221;28;20043;-78
2021/05/11 08:28:30;;;;;;;7.13;3.15;;;18.80;73.20;;;;;;5075076;28;20083;-78
2021/05/11 08:30:56;;;;;;;7.03;3.75;;;18.90;73.30;;;;;;5073935;28;20438;-77
2021/05/11 08:33:22;;;;;;;7.82;3.80;;;18.90;73.40;;;;;;5074942;28;20021;-78
2021/05/11 08:35:51;;;;;;;10.05;4.13;;;18.90;73.40;;;;;;5074246;28;20024;-78
2021/05/11 08:38:17;;;;;;;7.43;3.47;;;19.00;73.60;;;;;;5074574;28;20024;-78
2021/05/11 08:40:43;;;;;;;9.73;4.20;;;18.90;73.60;;;;;;5074027;28;20358;-78
2021/05/11 08:43:24;;;;;;;7.78;3.65;;;18.90;73.80;;;;;;5074743;28;20088;-78
2021/05/11 08:45:49;;;;;;;7.97;3.70;;;18.90;74.10;;;;;;5074115;28;20071;-77
2021/05/11 08:48:17;;;;;;;7.78;4.22;;;18.80;74.20;;;;;;5074695;28;20107;-77
2021/05/11 08:50:45;;;;;;;7.60;4.00;;;18.80;74.30;;;;;;5072552;28;20362;-76
2021/05/11 09:04:38;;;;;;;7.03;3.15;;;18.60;74.80;;;;;;5074385;28;20090;-79
2021/05/11 09:07:47;;;;;;;7.78;3.78;;;18.60;75.00;;;;;;5072501;28;20427;-77
2021/05/11 09:32:47;;;;;;;6.18;3.17;;;18.40;75.40;;;;;;5073893;28;20046;-78
2021/05/11 09:54:39;;;;;;;6.90;3.00;;;18.50;75.90;;;;;;5073682;28;20024;-79
2021/05/11 09:57:59;;;;;;;8.32;4.75;;;18.40;75.90;;;;;;5073565;28;20521;-77
2021/05/11 10:31:34;;;;;;;6.35;3.00;;;19.10;71.60;;;;;;5071503;28;20079;-78
2021/05/11 10:40:09;;;;;;;5.80;2.30;;;19.20;69.60;;;;;;5072576;28;20032;-78
2021/05/11 10:43:48;;;;;;;7.63;2.58;;;19.20;69.30;;;;;;5072388;28;20071;-78
2021/05/11 10:48:33;;;;;;;7.70;2.75;;;19.20;67.70;;;;;;5071868;28;20028;-78
2021/05/11 10:51:20;;;;;;;5.77;2.40;;;19.30;67.30;;;;;;5071766;28;20472;-79
2021/05/11 10:53:45;;;;;;;5.35;2.58;;;19.40;66.80;;;;;;5072528;28;20358;-78
2021/05/11 10:56:25;;;;;;;5.75;2.20;;;19.50;66.10;;;;;;5070442;28;20107;-78
2021/05/11 11:01:55;;;;;;;2.05;1.02;;;19.90;63.50;;;;;;5072524;28;20074;-77
2021/05/11 11:04:23;;;;;;;3.78;0.85;;;20.00;63.20;;;;;;5071169;28;20070;-77
2021/05/11 11:06:58;;;;;;;2.70;1.20;;;20.10;62.40;;;;;;5071035;28;20021;-79
2021/05/11 11:09:34;;;;;;;1.80;1.00;;;20.10;61.80;;;;;;5070785;28;20043;-78
2021/05/11 11:12:02;;;;;;;3.33;1.23;;;20.10;61.40;;;;;;5070326;28;20021;-78
2021/05/11 11:14:42;;;;;;;4.20;1.20;;;20.10;61.00;;;;;;5071981;28;20020;-78
2021/05/11 11:17:10;;;;;;;3.72;1.40;;;20.10;60.60;;;;;;5071583;28;20020;-79
2021/05/11 11:19:36;;;;;;;2.42;1.30;;;20.10;60.10;;;;;;5071770;28;20029;-78
2021/05/11 11:24:58;;;;;;;3.30;1.80;;;20.10;60.30;;;;;;5071417;28;20058;-78
2021/05/11 11:27:25;;;;;;;4.72;2.58;;;20.10;61.20;;;;;;5070650;28;20111;-78
2021/05/11 11:30:10;;;;;;;5.05;2.13;;;20.10;61.10;;;;;;5070249;28;20408;-78
2021/05/11 11:32:37;;;;;;;3.78;1.80;;;20.00;60.80;;;;;;5072007;28;20533;-79
2021/05/11 11:35:08;;;;;;;3.85;1.83;;;19.80;60.40;;;;;;5070129;28;20029;-77
2021/05/11 11:37:34;;;;;;;4.45;1.90;;;19.70;60.60;;;;;;5071645;28;20025;-78
2021/05/11 11:40:03;;;;;;;3.42;1.45;;;19.60;60.90;;;;;;5071365;28;20082;-77
2021/05/11 11:42:35;;;;;;;2.92;1.48;;;19.50;61.10;;;;;;5072034;28;20034;-78
2021/05/11 11:45:02;;;;;;;3.88;1.90;;;19.50;61.30;;;;;;5071234;28;20028;-78
2021/05/11 11:47:29;;;;;;;5.38;1.90;;;19.40;61.60;;;;;;5071870;28;20101;-79
2021/05/11 11:49:59;;;;;;;6.25;1.90;;;19.40;62.00;;;;;;5070740;28;20030;-77
2021/05/11 11:52:34;;;;;;;3.08;1.52;;;19.30;62.00;;;;;;5070886;28;20024;-78
2021/05/11 11:57:53;;;;;;;8.40;2.15;;;19.20;62.40;;;;;;5072476;28;20067;-79
2021/05/11 12:00:27;;;;;;;2.97;1.70;;;19.10;62.40;;;;;;5071387;28;20028;-79
2021/05/11 12:03:06;;;;;;;5.75;2.17;;;19.00;62.70;;;;;;5071677;28;20028;-78
2021/05/11 12:05:42;;;;;;;5.72;1.85;;;18.90;62.60;;;;;;5071741;28;20020;-78
2021/05/11 12:08:30;;;;;;;3.80;1.60;;;18.80;63.30;;;;;;5071163;28;20060;-79
2021/05/11 12:11:00;;;;;;;3.20;1.70;;;18.80;63.70;;;;;;5069895;28;20043;-78
2021/05/11 12:13:32;;;;;;;5.55;1.90;;;18.80;64.00;;;;;;5070301;28;20506;-79
2021/05/11 12:16:06;;;;;;;6.15;2.38;;;18.80;64.60;;;;;;5070864;28;20411;-77
2021/05/11 12:18:33;;;;;;;3.50;1.88;;;18.80;65.70;;;;;;5070267;28;20095;-77
2021/05/11 12:21:01;;;;;;;5.00;2.25;;;18.70;66.50;;;;;;5069497;28;20075;-78
2021/05/11 12:23:27;;;;;;;3.50;1.70;;;18.60;67.60;;;;;;5071511;28;20062;-79
2021/05/11 12:25:55;;;;;;;6.10;2.58;;;18.50;68.20;;;;;;5071522;28;20028;-77
2021/05/11 12:28:36;;;;;;;3.20;1.80;;;18.40;69.40;;;;;;5070753;28;20103;-78
2021/05/11 12:31:04;;;;;;;4.72;2.22;;;18.30;70.70;;;;;;5070722;28;20060;-78
2021/05/11 12:33:41;;;;;;;7.15;2.80;;;18.10;71.40;;;;;;5071667;28;20037;-78
2021/05/11 12:36:21;;;;;;;7.53;3.55;;;18.10;72.70;;;;;;5071381;28;20025;-77
2021/05/11 12:38:51;;;;;;;4.70;2.80;;;18.00;73.80;;;;;;5074851;28;20021;-77
2021/05/11 12:41:32;;;;;;;6.40;3.50;;;17.90;74.10;;;;;;5074164;28;20021;-77
2021/05/11 12:44:01;;;;;;;6.53;3.70;;;17.90;75.70;;;;;;5073687;28;20087;-76
2021/05/11 12:46:32;;;;;;;7.05;4.32;;;17.80;75.60;;;;;;5074792;28;20445;-77
2021/05/11 12:49:00;;;;;;;7.85;3.75;;;17.70;76.20;;;;;;5074789;28;20483;-77
2021/05/11 12:51:25;;;;;;;6.97;3.90;;;17.70;76.70;;;;;;5074735;28;20107;-76
2021/05/11 12:53:51;;;;;;;8.57;3.78;;;17.60;77.30;;;;;;5074662;28;20070;-77
2021/05/11 12:59:09;;;;;;;9.27;4.50;;;17.50;78.50;;;;;;5073766;28;20090;-77
2021/05/11 13:01:54;;;;;;;7.50;4.53;;;17.50;78.90;;;;;;5073170;28;20021;-77
2021/05/11 13:25:41;;;;;;;5.93;3.55;;;17.40;81.50;;;;;;5074123;28;20041;-77
2021/05/11 13:31:52;;;;;;;7.65;3.15;;;17.40;81.80;;;;;;5073439;28;20558;-77
2021/05/11 13:36:43;;;;;;;7.72;3.75;;;17.40;82.00;;;;;;5072373;28;20119;-78
2021/05/11 13:39:10;;;;;;;8.05;3.47;;;17.40;82.10;;;;;;5073287;28;20028;-77
2021/05/11 13:41:35;;;;;;;7.93;3.65;;;17.40;82.30;;;;;;5072092;28;20054;-78
2021/05/11 13:44:01;;;;;;;7.75;3.35;;;17.40;82.60;;;;;;5073642;28;20028;-78
2021/05/11 13:46:27;;;;;;;6.65;3.33;;;17.40;82.60;;;;;;5073041;28;20040;-79
2021/05/11 13:48:53;;;;;;;7.85;3.55;;;17.40;82.70;;;;;;5073566;28;20056;-77
2021/05/11 13:51:19;;;;;;;9.40;3.38;;;17.40;82.90;;;;;;5073003;28;20021;-78
2021/05/11 13:53:49;;;;;;;6.68;3.70;;;17.40;83.10;;;;;;5073580;28;20021;-78
2021/05/11 14:04:02;;;;;;;9.95;4.28;;;17.30;83.40;;;;;;5073392;28;20056;-77
2021/05/11 14:06:28;;;;;;;9.35;3.22;;;17.30;83.50;;;;;;5072943;28;20110;-78
2021/05/11 14:08:54;;;;;;;8.50;3.30;;;17.30;83.70;;;;;;5072850;28;20041;-78
2021/05/11 14:11:21;;;;;;;9.82;3.83;;;17.30;83.80;;;;;;5071072;28;20024;-77
2021/05/11 14:13:47;;;;;;;7.47;3.88;;;17.30;83.90;;;;;;5072768;28;20491;-78
2021/05/11 14:16:12;;;;;;;8.48;4.30;;;17.30;83.90;;;;;;5072553;28;20024;-77
2021/05/11 14:18:39;;;;;;;10.70;5.18;;;17.30;84.60;;;;;;5071893;28;20021;-77
2021/05/11 14:21:06;;;;;;;7.80;4.65;;;17.30;84.20;;;;;;5072909;28;20051;-78
2021/05/11 14:23:32;;;;;;;8.13;4.43;;;17.30;84.40;;;;;;5073044;28;20462;-78
2021/05/11 14:25:58;;;;;;;10.90;4.65;;;17.30;84.50;;;;;;5072813;28;20095;-78
2021/05/11 14:28:24;;;;;;;8.73;4.60;;;17.30;84.60;;;;;;5072146;28;20016;-78
2021/05/11 14:30:50;;;;;;;8.70;4.45;;;17.30;84.80;;;;;;5072622;28;20385;-79
2021/05/11 14:33:16;;;;;;;8.70;4.93;;;17.30;85.00;;;;;;5070871;28;20028;-77
2021/05/11 14:35:42;;;;;;;8.10;4.55;;;17.30;85.10;;;;;;5072384;28;20032;-78
2021/05/11 14:38:08;;;;;;;12.52;4.82;;;17.30;85.10;;;;;;5071758;28;20017;-77
2021/05/11 14:40:34;;;;;;;10.68;4.88;;;17.30;85.10;;;;;;5072700;28;20054;-78
2021/05/11 14:42:59;;;;;;;7.43;4.60;;;17.30;85.20;;;;;;5072274;28;20056;-78
2021/05/11 14:45:26;;;;;;;8.07;4.30;;;17.30;85.10;;;;;;5070579;28;20044;-78
2021/05/11 14:47:53;;;;;;;7.55;4.50;;;17.40;85.20;;;;;;5072422;28;20027;-78
2021/05/11 14:50:21;;;;;;;8.68;3.88;;;17.40;85.30;;;;;;5070510;28;20090;-78
2021/05/11 14:52:51;;;;;;;8.40;4.13;;;17.30;85.30;;;;;;5072099;28;20017;-77
2021/05/11 14:55:19;;;;;;;8.43;3.72;;;17.40;85.40;;;;;;5070576;28;20042;-77
2021/05/11 14:57:45;;;;;;;9.57;4.30;;;17.30;85.30;;;;;;5072386;28;20017;-77
2021/05/11 15:00:11;;;;;;;10.43;4.85;;;17.40;85.40;;;;;;5071306;28;20465;-77
2021/05/11 15:02:37;;;;;;;9.52;4.28;;;17.40;85.50;;;;;;5071063;28;20028;-77
2021/05/11 15:05:04;;;;;;;9.23;5.53;;;17.30;85.50;;;;;;5070874;28;20017;-78
2021/05/11 15:07:30;;;;;;;8.70;4.75;;;17.40;85.60;;;;;;5070284;28;20051;-78
2021/05/11 15:09:55;;;;;;;9.63;5.65;;;17.40;85.60;;;;;;5070824;28;20037;-78
2021/05/11 15:12:21;;;;;;;11.88;6.65;;;17.40;85.70;;;;;;5071553;28;20074;-78
2021/05/11 15:14:47;;;;;;;11.40;6.22;;;17.40;85.60;;;;;;5072416;28;20457;-78
2021/05/11 15:19:58;;;;;;;10.40;5.97;;;17.30;85.60;;;;;;5072178;28;20115;-77
2021/05/11 15:22:24;;;;;;;12.75;5.63;;;17.30;85.80;;;;;;5071435;28;20016;-77
2021/05/11 15:24:51;;;;;;;9.88;5.63;;;17.30;85.80;;;;;;5072100;28;20095;-78
2021/05/11 15:27:17;;;;;;;9.95;5.75;;;17.30;85.90;;;;;;5070040;28;20025;-78
2021/05/11 15:29:43;;;;;;;10.13;5.80;;;17.30;86.00;;;;;;5070901;28;20491;-79
2021/05/11 15:32:44;;;;;;;9.88;5.43;;;17.20;86.00;;;;;;5071718;28;20044;-78
2021/05/11 15:35:18;;;;;;;;;;;17.30;86.10;;;;;;5072140;28;20033;-78
2021/05/11 15:37:46;;;;;;;8.65;4.97;;;17.10;85.80;;;;;;5071712;28;20329;-78
2021/05/11 15:40:16;;;;;;;10.02;5.55;;;17.10;86.00;;;;;;5071490;28;20028;-76
2021/05/11 15:42:42;;;;;;;11.05;5.53;;;17.10;86.20;;;;;;5071772;28;20028;-77
2021/05/11 15:45:09;;;;;;;8.95;5.72;;;17.10;86.20;;;;;;5071428;28;20060;-78
2021/05/11 15:47:38;;;;;;;15.15;7.15;;;17.10;86.30;;;;;;5069713;28;20020;-77
2021/05/11 15:50:05;;;;;;;11.57;7.32;;;17.10;86.40;;;;;;5071715;28;20027;-79
2021/05/11 15:52:31;;;;;;;13.43;7.18;;;17.10;86.50;;;;;;5069771;28;20027;-76
2021/05/11 15:54:57;;;;;;;13.85;7.60;;;17.10;86.60;;;;;;5071790;28;20017;-77
2021/05/11 15:57:23;;;;;;;12.18;7.20;;;17.10;86.70;;;;;;5071540;28;20021;-77
2021/05/11 15:59:48;;;;;;;13.32;6.63;;;17.20;86.70;;;;;;5071916;28;20035;-78
2021/05/11 16:02:14;;;;;;;12.38;7.28;;;17.20;86.70;;;;;;5070817;28;20174;-77
2021/05/11 16:04:39;;;;;;;9.60;5.80;;;17.20;86.70;;;;;;5067345;28;20020;-81
2021/05/11 16:07:05;;;;;;;11.23;5.90;;;17.10;86.70;;;;;;5063890;28;20449;-77
2021/05/11 16:09:31;;;;;;;11.40;6.15;;;17.10;86.80;;;;;;5060575;28;20032;-78
2021/05/11 16:11:57;;;;;;;12.35;6.38;;;17.20;86.80;;;;;;5072500;28;20024;-78
2021/05/11 16:14:23;;;;;;;11.18;5.88;;;17.20;86.90;;;;;;5072800;28;20016;-78
2021/05/11 16:16:48;;;;;;;11.27;6.53;;;17.20;87.00;;;;;;5074977;28;20104;-79
2021/05/11 16:19:14;;;;;;;14.07;6.47;;;17.10;87.00;;;;;;5074990;28;20376;-78
2021/05/11 16:21:40;;;;;;;13.02;6.07;;;17.20;87.10;;;;;;5073613;28;20020;-78
2021/05/11 16:24:06;;;;;;;10.85;5.93;;;17.20;87.20;;;;;;5075131;28;20020;-78
2021/05/11 16:26:32;;;;;;;11.02;6.50;;;17.20;87.20;;;;;;5073297;28;20016;-78
2021/05/11 16:28:57;;;;;;;9.90;5.97;;;17.20;87.20;;;;;;5073587;28;20032;-78
2021/05/11 16:31:24;;;;;;;12.15;5.82;;;17.10;87.30;;;;;;5072736;28;20132;-77
2021/05/11 16:33:50;;;;;;;11.45;6.47;;;17.10;87.30;;;;;;5074654;28;20078;-77
2021/05/11 16:36:16;;;;;;;10.70;6.78;;;17.20;87.40;;;;;;5074100;28;20031;-78
2021/05/11 16:38:41;;;;;;;10.05;5.60;;;17.20;87.30;;;;;;5074660;28;20016;-78
2021/05/11 16:41:07;;;;;;;7.60;5.03;;;17.20;87.30;;;;;;5073998;28;20433;-78
2021/05/11 16:43:33;;;;;;;10.52;5.95;;;17.20;87.10;;;;;;5074492;28;20040;-77
2021/05/11 16:46:04;;;;;;;13.18;6.38;;;17.10;87.20;;;;;;5073612;28;20023;-78
2021/05/11 16:48:34;;;;;;;10.68;6.32;;;17.20;87.30;;;;;;5069577;28;20032;-79
2021/05/11 16:51:00;;;;;;;12.85;7.05;;;17.10;87.30;;;;;;5073964;28;20017;-80
2021/05/11 16:53:26;;;;;;;9.25;5.75;;;17.10;87.30;;;;;;5070833;28;20025;-77
2021/05/11 16:55:52;;;;;;;9.93;5.82;;;17.10;87.40;;;;;;5051153;28;20025;-77
2021/05/11 16:58:18;;;;;;;10.57;5.97;;;17.10;87.50;;;;;;5058804;28;20044;-79
2021/05/11 17:00:44;;;;;;;12.00;6.55;;;17.10;87.50;;;;;;5052366;28;20025;-75
2021/05/11 17:03:09;;;;;;;10.68;6.43;;;17.10;87.50;;;;;;5050461;28;20021;-77
2021/05/11 17:05:36;;;;;;;11.82;6.25;;;17.00;87.60;;;;;;5051560;28;20082;-76